Port Costa, CA (94569)

7:15 PM PDT on July 25, 2016 (GMT -0700)
Port Costa | | Change Station

Elev 295 ft 38.05 °N, 122.20 °W | Updated 8 seconds ago

Clear
Clear
74.5 °F
Feels Like 77 °F
N
6.7
Wind Variable Wind from SSW
Gusts 7.4 mph

Today
High -- | Low -- °F
--% Chance of Precip.
Yesterday
High -- | Low -- °F
Precip. -- in
Pressure 29.81 in
Visibility 10.0 miles
Clouds Clear
Heat Index 77 °F
Dew Point 40 °F
Humidity 29%
Rainfall 0.00 in
Snow Depth Not available.
6:06 AM 8:23 PM
Waning Gibbous, 60% visible
METAR KCCR 260153Z 25008KT 10SM CLR 32/04 A2985 RMK AO2 SLP095 T03220039
Pressure 29.81 in
Visibility 10.0 miles
Clouds Clear
Heat Index 77 °F
Dew Point 40 °F
Humidity 29%
Rainfall 0.00 in
Snow Depth Not available.
6:06 AM 8:23 PM
Waning Gibbous, 60% visible
METAR KCCR 260153Z 25008KT 10SM CLR 32/04 A2985 RMK AO2 SLP095 T03220039

10-Day Weather Forecast

Almanac

Astronomy

Jul. 25, 2016 Rise Set
Actual Time
Civil Twilight
Nautical Twilight
Astronomical Twilight
Moon
Length of Visible Light
Length of Day
Tomorrow will be .
, % of the Moon is Illuminated

Today's Extremes

State Highs State Lows

Community

WunderPhotos

Upload Photos

1,927,503 photos uploaded!

WunderBlog® & News

Nearby

Air Quality

  Air Quality AQ Index Pollutant
Not available.

Snow Depth

Station Depth Elevation

Earthquake Activity

City Distance Mag. Time & Date
Minimum magnitude displayed is 2.5.

Coastal Water Temperatures

Place Temperature

Stations

Nearby Weather Stations

Station Location Temp. Windchill Dew Point Humidity Wind Precip. Elev Updated Type
                   

Watches & Warnings

There are currently no watches in effect.